sensor_id;sensor_type;location;lat;lon;timestamp;P1;durP1;ratioP1;P2;durP2;ratioP2
54993;SDS011;40891;47.242;8.648;2023-01-23T00:01:06;12.33;;;7.07;;
54993;SDS011;40891;47.242;8.648;2023-01-23T00:03:33;13.40;;;7.87;;
54993;SDS011;40891;47.242;8.648;2023-01-23T00:05:59;13.80;;;7.60;;
54993;SDS011;40891;47.242;8.648;2023-01-23T00:08:27;12.73;;;7.37;;
54993;SDS011;40891;47.242;8.648;2023-01-23T00:10:53;15.53;;;8.20;;
54993;SDS011;40891;47.242;8.648;2023-01-23T00:13:19;14.33;;;7.73;;
54993;SDS011;40891;47.242;8.648;2023-01-23T00:15:45;13.43;;;7.30;;
54993;SDS011;40891;47.242;8.648;2023-01-23T00:18:10;14.87;;;8.27;;
54993;SDS011;40891;47.242;8.648;2023-01-23T00:20:36;17.00;;;8.23;;
54993;SDS011;40891;47.242;8.648;2023-01-23T00:23:02;13.30;;;7.97;;
54993;SDS011;40891;47.242;8.648;2023-01-23T00:25:27;14.60;;;8.00;;
54993;SDS011;40891;47.242;8.648;2023-01-23T00:27:53;13.57;;;7.33;;
54993;SDS011;40891;47.242;8.648;2023-01-23T00:30:18;15.80;;;8.20;;
54993;SDS011;40891;47.242;8.648;2023-01-23T00:32:44;15.13;;;7.87;;
54993;SDS011;40891;47.242;8.648;2023-01-23T00:35:09;16.03;;;8.80;;
54993;SDS011;40891;47.242;8.648;2023-01-23T00:37:34;14.17;;;8.10;;
54993;SDS011;40891;47.242;8.648;2023-01-23T00:40:00;16.00;;;7.63;;
54993;SDS011;40891;47.242;8.648;2023-01-23T00:42:25;15.37;;;8.30;;
54993;SDS011;40891;47.242;8.648;2023-01-23T00:44:51;17.00;;;8.93;;
54993;SDS011;40891;47.242;8.648;2023-01-23T00:47:16;14.50;;;8.07;;
54993;SDS011;40891;47.242;8.648;2023-01-23T00:49:41;15.63;;;8.50;;
54993;SDS011;40891;47.242;8.648;2023-01-23T00:52:06;16.03;;;8.30;;
54993;SDS011;40891;47.242;8.648;2023-01-23T00:54:32;16.93;;;8.40;;
54993;SDS011;40891;47.242;8.648;2023-01-23T00:56:57;20.67;;;8.50;;
54993;SDS011;40891;47.242;8.648;2023-01-23T00:59:22;16.53;;;8.10;;
54993;SDS011;40891;47.242;8.648;2023-01-23T01:01:48;14.77;;;8.17;;
54993;SDS011;40891;47.242;8.648;2023-01-23T01:04:13;15.20;;;7.97;;
54993;SDS011;40891;47.242;8.648;2023-01-23T01:06:39;13.73;;;7.70;;
54993;SDS011;40891;47.242;8.648;2023-01-23T01:09:04;14.87;;;8.00;;
54993;SDS011;40891;47.242;8.648;2023-01-23T01:11:29;14.03;;;7.47;;
54993;SDS011;40891;47.242;8.648;2023-01-23T01:13:55;16.07;;;8.30;;
54993;SDS011;40891;47.242;8.648;2023-01-23T01:16:20;13.90;;;7.70;;
54993;SDS011;40891;47.242;8.648;2023-01-23T01:18:48;14.33;;;8.20;;
54993;SDS011;40891;47.242;8.648;2023-01-23T01:21:13;15.23;;;8.43;;
54993;SDS011;40891;47.242;8.648;2023-01-23T01:23:39;13.47;;;7.67;;
54993;SDS011;40891;47.242;8.648;2023-01-23T01:26:05;16.43;;;8.80;;
54993;SDS011;40891;47.242;8.648;2023-01-23T01:28:32;14.50;;;7.83;;
54993;SDS011;40891;47.242;8.648;2023-01-23T01:31:02;14.70;;;8.13;;
54993;SDS011;40891;47.242;8.648;2023-01-23T01:33:32;15.33;;;8.33;;
54993;SDS011;40891;47.242;8.648;2023-01-23T01:35:58;16.10;;;8.17;;
54993;SDS011;40891;47.242;8.648;2023-01-23T01:38:26;16.73;;;9.00;;
54993;SDS011;40891;47.242;8.648;2023-01-23T01:40:52;15.43;;;8.17;;
54993;SDS011;40891;47.242;8.648;2023-01-23T01:43:19;14.90;;;8.07;;
54993;SDS011;40891;47.242;8.648;2023-01-23T01:49:31;15.27;;;8.20;;
54993;SDS011;40891;47.242;8.648;2023-01-23T01:51:33;16.70;;;8.50;;
54993;SDS011;40891;47.242;8.648;2023-01-23T01:54:18;15.17;;;7.90;;
54993;SDS011;40891;47.242;8.648;2023-01-23T01:57:03;15.73;;;8.30;;
54993;SDS011;40891;47.242;8.648;2023-01-23T01:59:30;13.37;;;8.30;;
54993;SDS011;40891;47.242;8.648;2023-01-23T02:02:06;17.90;;;8.83;;
54993;SDS011;40891;47.242;8.648;2023-01-23T02:04:36;16.10;;;8.77;;
54993;SDS011;40891;47.242;8.648;2023-01-23T02:07:06;16.17;;;8.90;;
54993;SDS011;40891;47.242;8.648;2023-01-23T02:09:38;15.93;;;8.63;;
54993;SDS011;40891;47.242;8.648;2023-01-23T02:12:05;17.77;;;9.07;;
54993;SDS011;40891;47.242;8.648;2023-01-23T02:14:32;17.90;;;9.73;;
54993;SDS011;40891;47.242;8.648;2023-01-23T02:16:58;18.47;;;9.63;;
54993;SDS011;40891;47.242;8.648;2023-01-23T02:22:18;19.53;;;9.47;;
54993;SDS011;40891;47.242;8.648;2023-01-23T02:24:52;18.27;;;9.70;;
54993;SDS011;40891;47.242;8.648;2023-01-23T02:27:27;17.10;;;9.27;;
54993;SDS011;40891;47.242;8.648;2023-01-23T02:29:52;17.70;;;10.27;;
54993;SDS011;40891;47.242;8.648;2023-01-23T02:32:20;21.30;;;10.63;;
54993;SDS011;40891;47.242;8.648;2023-01-23T02:34:48;19.63;;;10.90;;
54993;SDS011;40891;47.242;8.648;2023-01-23T02:37:15;18.83;;;9.57;;
54993;SDS011;40891;47.242;8.648;2023-01-23T02:39:41;18.80;;;10.17;;
54993;SDS011;40891;47.242;8.648;2023-01-23T02:42:07;20.50;;;10.23;;
54993;SDS011;40891;47.242;8.648;2023-01-23T02:44:33;19.80;;;10.83;;
54993;SDS011;40891;47.242;8.648;2023-01-23T02:47:04;19.87;;;10.37;;
54993;SDS011;40891;47.242;8.648;2023-01-23T02:49:36;22.77;;;10.47;;
54993;SDS011;40891;47.242;8.648;2023-01-23T02:52:06;24.70;;;10.27;;
54993;SDS011;40891;47.242;8.648;2023-01-23T02:54:33;19.63;;;10.13;;
54993;SDS011;40891;47.242;8.648;2023-01-23T02:56:59;18.20;;;9.90;;
54993;SDS011;40891;47.242;8.648;2023-01-23T02:59:24;21.87;;;10.27;;
54993;SDS011;40891;47.242;8.648;2023-01-23T03:02:08;21.73;;;10.50;;
54993;SDS011;40891;47.242;8.648;2023-01-23T03:04:34;19.80;;;10.80;;
54993;SDS011;40891;47.242;8.648;2023-01-23T03:07:00;19.83;;;10.87;;
54993;SDS011;40891;47.242;8.648;2023-01-23T03:09:25;20.27;;;10.77;;
54993;SDS011;40891;47.242;8.648;2023-01-23T03:11:51;23.90;;;10.77;;
54993;SDS011;40891;47.242;8.648;2023-01-23T03:14:17;21.73;;;10.73;;
54993;SDS011;40891;47.242;8.648;2023-01-23T03:16:44;19.20;;;10.73;;
54993;SDS011;40891;47.242;8.648;2023-01-23T03:19:14;20.77;;;10.63;;
54993;SDS011;40891;47.242;8.648;2023-01-23T03:21:40;21.03;;;11.30;;
54993;SDS011;40891;47.242;8.648;2023-01-23T03:24:06;20.37;;;10.63;;
54993;SDS011;40891;47.242;8.648;2023-01-23T03:26:42;22.53;;;11.23;;
54993;SDS011;40891;47.242;8.648;2023-01-23T03:29:19;19.80;;;10.07;;
54993;SDS011;40891;47.242;8.648;2023-01-23T03:32:06;19.43;;;10.47;;
54993;SDS011;40891;47.242;8.648;2023-01-23T03:34:32;18.73;;;10.13;;
54993;SDS011;40891;47.242;8.648;2023-01-23T03:36:58;22.87;;;11.43;;
54993;SDS011;40891;47.242;8.648;2023-01-23T03:39:25;19.73;;;10.97;;
54993;SDS011;40891;47.242;8.648;2023-01-23T03:42:09;24.10;;;11.67;;
54993;SDS011;40891;47.242;8.648;2023-01-23T03:44:34;19.73;;;10.97;;
54993;SDS011;40891;47.242;8.648;2023-01-23T03:47:00;22.80;;;11.43;;
54993;SDS011;40891;47.242;8.648;2023-01-23T03:49:25;18.87;;;10.27;;
54993;SDS011;40891;47.242;8.648;2023-01-23T03:51:51;19.43;;;9.03;;
54993;SDS011;40891;47.242;8.648;2023-01-23T03:54:16;22.67;;;10.33;;
54993;SDS011;40891;47.242;8.648;2023-01-23T03:56:41;21.93;;;11.00;;
54993;SDS011;40891;47.242;8.648;2023-01-23T03:59:07;22.63;;;11.30;;
54993;SDS011;40891;47.242;8.648;2023-01-23T04:01:33;19.50;;;10.93;;
54993;SDS011;40891;47.242;8.648;2023-01-23T04:03:58;20.73;;;10.67;;
54993;SDS011;40891;47.242;8.648;2023-01-23T04:06:24;22.93;;;11.53;;
54993;SDS011;40891;47.242;8.648;2023-01-23T04:08:49;20.57;;;10.70;;
54993;SDS011;40891;47.242;8.648;2023-01-23T04:11:14;19.77;;;10.43;;
54993;SDS011;40891;47.242;8.648;2023-01-23T04:13:40;23.13;;;11.03;;
54993;SDS011;40891;47.242;8.648;2023-01-23T04:16:06;19.53;;;10.63;;
54993;SDS011;40891;47.242;8.648;2023-01-23T04:18:31;20.10;;;10.77;;
54993;SDS011;40891;47.242;8.648;2023-01-23T04:20:57;21.30;;;11.03;;
54993;SDS011;40891;47.242;8.648;2023-01-23T04:23:23;24.10;;;11.67;;
54993;SDS011;40891;47.242;8.648;2023-01-23T04:25:49;21.87;;;10.97;;
54993;SDS011;40891;47.242;8.648;2023-01-23T04:28:15;22.50;;;11.13;;
54993;SDS011;40891;47.242;8.648;2023-01-23T04:30:40;20.07;;;10.67;;
54993;SDS011;40891;47.242;8.648;2023-01-23T04:33:06;22.07;;;12.23;;
54993;SDS011;40891;47.242;8.648;2023-01-23T04:35:31;24.27;;;11.67;;
54993;SDS011;40891;47.242;8.648;2023-01-23T04:37:56;21.67;;;10.83;;
54993;SDS011;40891;47.242;8.648;2023-01-23T04:40:22;19.10;;;10.53;;
54993;SDS011;40891;47.242;8.648;2023-01-23T04:42:47;23.70;;;11.53;;
54993;SDS011;40891;47.242;8.648;2023-01-23T04:45:12;20.43;;;10.53;;
54993;SDS011;40891;47.242;8.648;2023-01-23T04:47:38;20.63;;;10.97;;
54993;SDS011;40891;47.242;8.648;2023-01-23T04:50:04;22.80;;;11.07;;
54993;SDS011;40891;47.242;8.648;2023-01-23T04:52:29;20.90;;;11.03;;
54993;SDS011;40891;47.242;8.648;2023-01-23T04:54:55;19.10;;;10.27;;
54993;SDS011;40891;47.242;8.648;2023-01-23T04:57:20;20.90;;;10.03;;
54993;SDS011;40891;47.242;8.648;2023-01-23T04:59:46;18.63;;;9.53;;
54993;SDS011;40891;47.242;8.648;2023-01-23T05:02:11;20.93;;;10.60;;
54993;SDS011;40891;47.242;8.648;2023-01-23T05:04:37;20.70;;;10.50;;
54993;SDS011;40891;47.242;8.648;2023-01-23T05:07:02;22.00;;;10.20;;
54993;SDS011;40891;47.242;8.648;2023-01-23T05:09:28;19.00;;;10.43;;
54993;SDS011;40891;47.242;8.648;2023-01-23T05:11:53;21.37;;;10.23;;
54993;SDS011;40891;47.242;8.648;2023-01-23T05:14:18;22.20;;;11.10;;
54993;SDS011;40891;47.242;8.648;2023-01-23T05:16:46;22.47;;;11.77;;
54993;SDS011;40891;47.242;8.648;2023-01-23T05:19:11;24.50;;;12.07;;
54993;SDS011;40891;47.242;8.648;2023-01-23T05:21:37;22.77;;;11.60;;
54993;SDS011;40891;47.242;8.648;2023-01-23T05:24:02;21.43;;;11.00;;
54993;SDS011;40891;47.242;8.648;2023-01-23T05:26:28;21.00;;;10.73;;
54993;SDS011;40891;47.242;8.648;2023-01-23T05:28:53;23.87;;;11.13;;
54993;SDS011;40891;47.242;8.648;2023-01-23T05:31:19;23.87;;;11.87;;
54993;SDS011;40891;47.242;8.648;2023-01-23T05:33:44;23.87;;;11.30;;
54993;SDS011;40891;47.242;8.648;2023-01-23T05:36:09;24.13;;;12.20;;
54993;SDS011;40891;47.242;8.648;2023-01-23T05:38:35;21.07;;;10.67;;
54993;SDS011;40891;47.242;8.648;2023-01-23T05:41:00;21.10;;;11.40;;
54993;SDS011;40891;47.242;8.648;2023-01-23T05:43:26;26.53;;;11.63;;
54993;SDS011;40891;47.242;8.648;2023-01-23T05:45:51;22.60;;;11.03;;
54993;SDS011;40891;47.242;8.648;2023-01-23T05:48:16;23.63;;;11.93;;
54993;SDS011;40891;47.242;8.648;2023-01-23T05:50:42;21.67;;;10.97;;
54993;SDS011;40891;47.242;8.648;2023-01-23T05:53:07;21.37;;;10.43;;
54993;SDS011;40891;47.242;8.648;2023-01-23T05:55:32;25.17;;;11.83;;
54993;SDS011;40891;47.242;8.648;2023-01-23T05:57:58;22.43;;;11.33;;
54993;SDS011;40891;47.242;8.648;2023-01-23T06:00:23;19.20;;;10.20;;
54993;SDS011;40891;47.242;8.648;2023-01-23T06:02:48;25.80;;;11.27;;
54993;SDS011;40891;47.242;8.648;2023-01-23T06:05:14;22.30;;;10.83;;
54993;SDS011;40891;47.242;8.648;2023-01-23T06:07:39;18.47;;;9.83;;
54993;SDS011;40891;47.242;8.648;2023-01-23T06:10:05;21.10;;;10.63;;
54993;SDS011;40891;47.242;8.648;2023-01-23T06:12:32;21.13;;;10.73;;
54993;SDS011;40891;47.242;8.648;2023-01-23T06:14:58;20.90;;;9.87;;
54993;SDS011;40891;47.242;8.648;2023-01-23T06:17:23;16.47;;;9.23;;
54993;SDS011;40891;47.242;8.648;2023-01-23T06:19:48;17.03;;;8.43;;
54993;SDS011;40891;47.242;8.648;2023-01-23T06:22:14;21.07;;;10.47;;
54993;SDS011;40891;47.242;8.648;2023-01-23T06:24:39;17.60;;;9.90;;
54993;SDS011;40891;47.242;8.648;2023-01-23T06:27:04;19.23;;;9.77;;
54993;SDS011;40891;47.242;8.648;2023-01-23T06:29:36;20.63;;;10.17;;
54993;SDS011;40891;47.242;8.648;2023-01-23T06:32:01;17.90;;;9.33;;
54993;SDS011;40891;47.242;8.648;2023-01-23T06:34:28;21.97;;;10.47;;
54993;SDS011;40891;47.242;8.648;2023-01-23T06:36:53;22.27;;;9.93;;
54993;SDS011;40891;47.242;8.648;2023-01-23T06:39:19;21.43;;;10.03;;
54993;SDS011;40891;47.242;8.648;2023-01-23T06:41:44;23.83;;;11.53;;
54993;SDS011;40891;47.242;8.648;2023-01-23T06:44:09;23.07;;;10.87;;
54993;SDS011;40891;47.242;8.648;2023-01-23T06:46:35;20.80;;;10.50;;
54993;SDS011;40891;47.242;8.648;2023-01-23T06:49:01;19.77;;;10.13;;
54993;SDS011;40891;47.242;8.648;2023-01-23T06:51:27;22.70;;;10.63;;
54993;SDS011;40891;47.242;8.648;2023-01-23T06:53:53;20.80;;;10.30;;
54993;SDS011;40891;47.242;8.648;2023-01-23T06:56:18;20.57;;;10.07;;
54993;SDS011;40891;47.242;8.648;2023-01-23T06:58:44;20.57;;;9.80;;
54993;SDS011;40891;47.242;8.648;2023-01-23T07:01:10;18.87;;;10.07;;
54993;SDS011;40891;47.242;8.648;2023-01-23T07:03:39;19.93;;;9.57;;
54993;SDS011;40891;47.242;8.648;2023-01-23T07:06:05;21.47;;;9.93;;
54993;SDS011;40891;47.242;8.648;2023-01-23T07:08:32;19.63;;;9.90;;
54993;SDS011;40891;47.242;8.648;2023-01-23T07:10:58;17.90;;;9.57;;
54993;SDS011;40891;47.242;8.648;2023-01-23T07:13:24;18.13;;;9.57;;
54993;SDS011;40891;47.242;8.648;2023-01-23T07:15:50;20.53;;;9.97;;
54993;SDS011;40891;47.242;8.648;2023-01-23T07:18:15;22.07;;;10.27;;
54993;SDS011;40891;47.242;8.648;2023-01-23T07:20:42;20.73;;;10.13;;
54993;SDS011;40891;47.242;8.648;2023-01-23T07:23:08;18.97;;;9.80;;
54993;SDS011;40891;47.242;8.648;2023-01-23T07:25:34;19.37;;;10.03;;
54993;SDS011;40891;47.242;8.648;2023-01-23T07:27:59;16.40;;;9.43;;
54993;SDS011;40891;47.242;8.648;2023-01-23T07:30:25;20.63;;;9.50;;
54993;SDS011;40891;47.242;8.648;2023-01-23T07:32:50;17.20;;;9.57;;
54993;SDS011;40891;47.242;8.648;2023-01-23T07:35:16;18.87;;;9.33;;
54993;SDS011;40891;47.242;8.648;2023-01-23T07:37:41;17.33;;;9.80;;
54993;SDS011;40891;47.242;8.648;2023-01-23T07:40:07;19.93;;;9.60;;
54993;SDS011;40891;47.242;8.648;2023-01-23T07:42:33;17.13;;;8.43;;
54993;SDS011;40891;47.242;8.648;2023-01-23T07:44:58;16.67;;;8.90;;
54993;SDS011;40891;47.242;8.648;2023-01-23T07:47:23;19.17;;;8.83;;
54993;SDS011;40891;47.242;8.648;2023-01-23T07:49:49;18.73;;;9.47;;
54993;SDS011;40891;47.242;8.648;2023-01-23T07:52:14;16.33;;;9.00;;
54993;SDS011;40891;47.242;8.648;2023-01-23T07:54:39;15.53;;;8.70;;
54993;SDS011;40891;47.242;8.648;2023-01-23T07:57:05;17.40;;;8.67;;
54993;SDS011;40891;47.242;8.648;2023-01-23T07:59:30;15.67;;;8.50;;
54993;SDS011;40891;47.242;8.648;2023-01-23T08:01:55;17.07;;;8.60;;
54993;SDS011;40891;47.242;8.648;2023-01-23T08:04:21;16.80;;;9.33;;
54993;SDS011;40891;47.242;8.648;2023-01-23T08:06:46;17.87;;;8.77;;
54993;SDS011;40891;47.242;8.648;2023-01-23T08:09:11;16.23;;;8.53;;
54993;SDS011;40891;47.242;8.648;2023-01-23T08:11:37;14.97;;;7.97;;
54993;SDS011;40891;47.242;8.648;2023-01-23T08:14:03;15.27;;;7.87;;
54993;SDS011;40891;47.242;8.648;2023-01-23T08:16:28;13.90;;;7.87;;
54993;SDS011;40891;47.242;8.648;2023-01-23T08:18:54;16.17;;;8.37;;
54993;SDS011;40891;47.242;8.648;2023-01-23T08:21:19;13.97;;;7.73;;
54993;SDS011;40891;47.242;8.648;2023-01-23T08:23:45;13.97;;;7.60;;
54993;SDS011;40891;47.242;8.648;2023-01-23T08:26:11;14.40;;;7.87;;
54993;SDS011;40891;47.242;8.648;2023-01-23T08:28:39;14.07;;;8.13;;
54993;SDS011;40891;47.242;8.648;2023-01-23T08:31:05;15.63;;;7.63;;
54993;SDS011;40891;47.242;8.648;2023-01-23T08:33:33;12.97;;;7.20;;
54993;SDS011;40891;47.242;8.648;2023-01-23T08:35:59;15.23;;;8.10;;
54993;SDS011;40891;47.242;8.648;2023-01-23T08:38:25;16.67;;;7.87;;
54993;SDS011;40891;47.242;8.648;2023-01-23T08:40:51;13.43;;;8.10;;
54993;SDS011;40891;47.242;8.648;2023-01-23T08:43:19;14.33;;;7.47;;
54993;SDS011;40891;47.242;8.648;2023-01-23T08:46:03;12.50;;;6.90;;
54993;SDS011;40891;47.242;8.648;2023-01-23T08:48:29;12.17;;;7.23;;
54993;SDS011;40891;47.242;8.648;2023-01-23T08:51:13;14.27;;;7.40;;
54993;SDS011;40891;47.242;8.648;2023-01-23T08:53:38;11.87;;;7.37;;
54993;SDS011;40891;47.242;8.648;2023-01-23T08:56:05;13.37;;;7.00;;
54993;SDS011;40891;47.242;8.648;2023-01-23T08:58:32;11.70;;;6.97;;
54993;SDS011;40891;47.242;8.648;2023-01-23T09:00:58;15.67;;;7.30;;
54993;SDS011;40891;47.242;8.648;2023-01-23T09:03:24;11.47;;;6.70;;
54993;SDS011;40891;47.242;8.648;2023-01-23T09:05:49;11.17;;;6.57;;
54993;SDS011;40891;47.242;8.648;2023-01-23T09:08:15;12.37;;;6.53;;
54993;SDS011;40891;47.242;8.648;2023-01-23T09:10:40;11.63;;;6.50;;
54993;SDS011;40891;47.242;8.648;2023-01-23T09:13:06;14.87;;;7.57;;
54993;SDS011;40891;47.242;8.648;2023-01-23T09:15:31;11.63;;;6.47;;
54993;SDS011;40891;47.242;8.648;2023-01-23T09:17:56;11.10;;;6.67;;
54993;SDS011;40891;47.242;8.648;2023-01-23T09:20:22;11.70;;;6.77;;
54993;SDS011;40891;47.242;8.648;2023-01-23T09:22:50;10.80;;;6.30;;
54993;SDS011;40891;47.242;8.648;2023-01-23T09:25:17;11.93;;;6.67;;
54993;SDS011;40891;47.242;8.648;2023-01-23T09:27:42;15.97;;;6.30;;
54993;SDS011;40891;47.242;8.648;2023-01-23T09:30:08;9.97;;;5.77;;
54993;SDS011;40891;47.242;8.648;2023-01-23T09:32:34;12.17;;;6.60;;
54993;SDS011;40891;47.242;8.648;2023-01-23T09:34:59;13.00;;;5.97;;
54993;SDS011;40891;47.242;8.648;2023-01-23T09:37:24;11.13;;;5.87;;
54993;SDS011;40891;47.242;8.648;2023-01-23T09:39:53;12.70;;;6.77;;
54993;SDS011;40891;47.242;8.648;2023-01-23T09:42:24;11.37;;;6.53;;
54993;SDS011;40891;47.242;8.648;2023-01-23T09:45:02;11.57;;;6.23;;
54993;SDS011;40891;47.242;8.648;2023-01-23T09:47:42;12.13;;;6.50;;
54993;SDS011;40891;47.242;8.648;2023-01-23T09:50:31;13.37;;;7.30;;
54993;SDS011;40891;47.242;8.648;2023-01-23T09:53:03;12.83;;;6.67;;
54993;SDS011;40891;47.242;8.648;2023-01-23T09:55:38;9.80;;;6.23;;
54993;SDS011;40891;47.242;8.648;2023-01-23T09:58:10;12.27;;;6.43;;
54993;SDS011;40891;47.242;8.648;2023-01-23T10:00:41;13.70;;;6.70;;
54993;SDS011;40891;47.242;8.648;2023-01-23T10:03:11;12.00;;;6.50;;
54993;SDS011;40891;47.242;8.648;2023-01-23T10:05:42;9.97;;;5.80;;
54993;SDS011;40891;47.242;8.648;2023-01-23T10:08:20;11.23;;;6.27;;
54993;SDS011;40891;47.242;8.648;2023-01-23T10:14:18;12.13;;;5.60;;
54993;SDS011;40891;47.242;8.648;2023-01-23T10:17:02;12.40;;;6.17;;
54993;SDS011;40891;47.242;8.648;2023-01-23T10:19:51;9.40;;;5.77;;
54993;SDS011;40891;47.242;8.648;2023-01-23T10:25:28;10.27;;;5.07;;
54993;SDS011;40891;47.242;8.648;2023-01-23T10:28:08;13.70;;;6.33;;
54993;SDS011;40891;47.242;8.648;2023-01-23T10:30:43;12.50;;;6.00;;
54993;SDS011;40891;47.242;8.648;2023-01-23T10:33:15;10.47;;;6.00;;
54993;SDS011;40891;47.242;8.648;2023-01-23T10:35:48;12.93;;;6.27;;
54993;SDS011;40891;47.242;8.648;2023-01-23T10:38:22;13.30;;;6.47;;
54993;SDS011;40891;47.242;8.648;2023-01-23T10:40:53;12.57;;;6.47;;
54993;SDS011;40891;47.242;8.648;2023-01-23T10:43:37;12.43;;;6.43;;
54993;SDS011;40891;47.242;8.648;2023-01-23T10:46:12;12.47;;;6.20;;
54993;SDS011;40891;47.242;8.648;2023-01-23T10:51:23;14.37;;;6.13;;
54993;SDS011;40891;47.242;8.648;2023-01-23T10:56:33;10.93;;;6.60;;
54993;SDS011;40891;47.242;8.648;2023-01-23T10:59:00;8.63;;;5.30;;
54993;SDS011;40891;47.242;8.648;2023-01-23T11:01:28;10.50;;;5.87;;
54993;SDS011;40891;47.242;8.648;2023-01-23T11:03:56;10.67;;;6.40;;
54993;SDS011;40891;47.242;8.648;2023-01-23T11:06:32;11.87;;;6.47;;
54993;SDS011;40891;47.242;8.648;2023-01-23T11:08:58;10.73;;;6.10;;
54993;SDS011;40891;47.242;8.648;2023-01-23T11:11:26;10.90;;;6.40;;
54993;SDS011;40891;47.242;8.648;2023-01-23T11:14:14;10.40;;;5.67;;
54993;SDS011;40891;47.242;8.648;2023-01-23T11:16:46;10.37;;;6.27;;
54993;SDS011;40891;47.242;8.648;2023-01-23T11:19:24;12.17;;;6.03;;
54993;SDS011;40891;47.242;8.648;2023-01-23T11:21:51;10.93;;;6.10;;
54993;SDS011;40891;47.242;8.648;2023-01-23T11:26:57;13.50;;;6.40;;
54993;SDS011;40891;47.242;8.648;2023-01-23T11:29:28;11.33;;;6.43;;
54993;SDS011;40891;47.242;8.648;2023-01-23T11:32:00;9.47;;;5.00;;
54993;SDS011;40891;47.242;8.648;2023-01-23T11:34:36;10.97;;;6.33;;
54993;SDS011;40891;47.242;8.648;2023-01-23T11:42:34;12.17;;;6.93;;
54993;SDS011;40891;47.242;8.648;2023-01-23T11:45:04;9.67;;;5.80;;
54993;SDS011;40891;47.242;8.648;2023-01-23T11:50:26;11.60;;;6.60;;
54993;SDS011;40891;47.242;8.648;2023-01-23T11:55:54;11.57;;;6.57;;
54993;SDS011;40891;47.242;8.648;2023-01-23T11:58:29;12.73;;;7.00;;
54993;SDS011;40891;47.242;8.648;2023-01-23T12:06:35;13.43;;;7.00;;
54993;SDS011;40891;47.242;8.648;2023-01-23T12:11:41;11.73;;;6.57;;
54993;SDS011;40891;47.242;8.648;2023-01-23T12:14:20;12.73;;;7.40;;
54993;SDS011;40891;47.242;8.648;2023-01-23T12:27:47;12.23;;;7.00;;
54993;SDS011;40891;47.242;8.648;2023-01-23T12:40:48;13.80;;;7.10;;
54993;SDS011;40891;47.242;8.648;2023-01-23T12:43:20;13.33;;;7.27;;
54993;SDS011;40891;47.242;8.648;2023-01-23T12:46:05;11.97;;;6.67;;
54993;SDS011;40891;47.242;8.648;2023-01-23T12:48:40;15.70;;;7.37;;
54993;SDS011;40891;47.242;8.648;2023-01-23T12:51:15;12.63;;;6.90;;
54993;SDS011;40891;47.242;8.648;2023-01-23T12:53:45;14.17;;;8.00;;
54993;SDS011;40891;47.242;8.648;2023-01-23T12:56:18;14.17;;;7.97;;
54993;SDS011;40891;47.242;8.648;2023-01-23T12:59:31;12.93;;;7.20;;
54993;SDS011;40891;47.242;8.648;2023-01-23T13:07:40;15.00;;;7.93;;
54993;SDS011;40891;47.242;8.648;2023-01-23T13:13:34;13.87;;;7.23;;
54993;SDS011;40891;47.242;8.648;2023-01-23T13:16:00;13.07;;;7.40;;
54993;SDS011;40891;47.242;8.648;2023-01-23T13:18:26;14.20;;;7.13;;
54993;SDS011;40891;47.242;8.648;2023-01-23T13:21:01;13.37;;;7.53;;
54993;SDS011;40891;47.242;8.648;2023-01-23T13:23:47;16.40;;;7.87;;
54993;SDS011;40891;47.242;8.648;2023-01-23T13:28:47;15.73;;;7.87;;
54993;SDS011;40891;47.242;8.648;2023-01-23T13:31:39;15.00;;;7.90;;
54993;SDS011;40891;47.242;8.648;2023-01-23T13:36:39;15.77;;;8.80;;
54993;SDS011;40891;47.242;8.648;2023-01-23T13:41:46;14.53;;;8.20;;
54993;SDS011;40891;47.242;8.648;2023-01-23T13:44:21;19.00;;;8.57;;
54993;SDS011;40891;47.242;8.648;2023-01-23T13:49:24;16.17;;;8.27;;
54993;SDS011;40891;47.242;8.648;2023-01-23T13:52:20;16.17;;;8.33;;
54993;SDS011;40891;47.242;8.648;2023-01-23T13:55:17;18.73;;;8.63;;
54993;SDS011;40891;47.242;8.648;2023-01-23T13:58:04;16.17;;;8.43;;
54993;SDS011;40891;47.242;8.648;2023-01-23T14:00:33;17.43;;;8.77;;
54993;SDS011;40891;47.242;8.648;2023-01-23T14:06:03;18.10;;;9.20;;
54993;SDS011;40891;47.242;8.648;2023-01-23T14:08:33;16.97;;;7.93;;
54993;SDS011;40891;47.242;8.648;2023-01-23T14:11:13;16.73;;;8.20;;
54993;SDS011;40891;47.242;8.648;2023-01-23T14:13:50;15.03;;;7.80;;
54993;SDS011;40891;47.242;8.648;2023-01-23T14:16:38;15.77;;;7.77;;
54993;SDS011;40891;47.242;8.648;2023-01-23T14:21:56;13.80;;;7.47;;
54993;SDS011;40891;47.242;8.648;2023-01-23T14:24:38;13.60;;;6.90;;
54993;SDS011;40891;47.242;8.648;2023-01-23T14:27:08;16.03;;;8.73;;
54993;SDS011;40891;47.242;8.648;2023-01-23T14:29:53;14.90;;;7.83;;
54993;SDS011;40891;47.242;8.648;2023-01-23T14:32:21;13.03;;;7.47;;
54993;SDS011;40891;47.242;8.648;2023-01-23T14:34:48;13.80;;;7.77;;
54993;SDS011;40891;47.242;8.648;2023-01-23T14:37:13;14.47;;;8.00;;
54993;SDS011;40891;47.242;8.648;2023-01-23T14:39:42;12.73;;;6.87;;
54993;SDS011;40891;47.242;8.648;2023-01-23T14:42:30;13.03;;;7.10;;
54993;SDS011;40891;47.242;8.648;2023-01-23T14:44:58;12.97;;;7.13;;
54993;SDS011;40891;47.242;8.648;2023-01-23T14:50:01;12.37;;;7.13;;
54993;SDS011;40891;47.242;8.648;2023-01-23T14:52:32;12.57;;;6.57;;
54993;SDS011;40891;47.242;8.648;2023-01-23T14:54:58;14.17;;;7.03;;
54993;SDS011;40891;47.242;8.648;2023-01-23T14:57:24;12.17;;;6.63;;
54993;SDS011;40891;47.242;8.648;2023-01-23T14:59:52;12.33;;;6.73;;
54993;SDS011;40891;47.242;8.648;2023-01-23T15:07:41;11.30;;;6.33;;
54993;SDS011;40891;47.242;8.648;2023-01-23T15:10:16;12.63;;;6.93;;
54993;SDS011;40891;47.242;8.648;2023-01-23T15:12:51;14.00;;;6.70;;
54993;SDS011;40891;47.242;8.648;2023-01-23T15:15:20;12.17;;;6.63;;
54993;SDS011;40891;47.242;8.648;2023-01-23T15:17:46;13.60;;;6.73;;
54993;SDS011;40891;47.242;8.648;2023-01-23T15:25:43;12.50;;;6.73;;
54993;SDS011;40891;47.242;8.648;2023-01-23T15:28:28;13.23;;;6.83;;
54993;SDS011;40891;47.242;8.648;2023-01-23T15:30:55;12.47;;;6.50;;
54993;SDS011;40891;47.242;8.648;2023-01-23T15:33:25;11.00;;;6.67;;
54993;SDS011;40891;47.242;8.648;2023-01-23T15:35:59;11.93;;;6.17;;
54993;SDS011;40891;47.242;8.648;2023-01-23T15:38:30;11.13;;;6.37;;
54993;SDS011;40891;47.242;8.648;2023-01-23T15:40:56;15.47;;;6.87;;
54993;SDS011;40891;47.242;8.648;2023-01-23T15:43:22;12.47;;;6.80;;
54993;SDS011;40891;47.242;8.648;2023-01-23T15:45:47;11.97;;;6.33;;
54993;SDS011;40891;47.242;8.648;2023-01-23T15:48:12;12.33;;;6.67;;
54993;SDS011;40891;47.242;8.648;2023-01-23T15:50:38;12.37;;;6.43;;
54993;SDS011;40891;47.242;8.648;2023-01-23T15:53:08;11.83;;;6.43;;
54993;SDS011;40891;47.242;8.648;2023-01-23T15:55:35;10.40;;;6.00;;
54993;SDS011;40891;47.242;8.648;2023-01-23T15:58:01;13.23;;;6.53;;
54993;SDS011;40891;47.242;8.648;2023-01-23T16:00:27;11.83;;;6.10;;
54993;SDS011;40891;47.242;8.648;2023-01-23T16:02:53;10.27;;;6.20;;
54993;SDS011;40891;47.242;8.648;2023-01-23T16:05:20;16.93;;;6.23;;
54993;SDS011;40891;47.242;8.648;2023-01-23T16:07:48;12.90;;;6.77;;
54993;SDS011;40891;47.242;8.648;2023-01-23T16:12:45;11.00;;;6.57;;
54993;SDS011;40891;47.242;8.648;2023-01-23T16:15:20;12.53;;;6.70;;
54993;SDS011;40891;47.242;8.648;2023-01-23T16:17:47;13.20;;;6.80;;
54993;SDS011;40891;47.242;8.648;2023-01-23T16:20:14;13.73;;;6.67;;
54993;SDS011;40891;47.242;8.648;2023-01-23T16:22:40;11.17;;;6.37;;